createdAt,value
2019-04-30T00:01:48.482Z,98660.45
2019-04-30T00:04:15.774Z,98650.57
2019-04-30T00:06:42.145Z,98653.23
2019-04-30T00:09:15.116Z,98661.23
2019-04-30T00:11:38.214Z,98663.42
2019-04-30T00:14:05.625Z,98658.44
2019-04-30T00:16:36.310Z,98660.46
2019-04-30T00:19:00.831Z,98661.27
2019-04-30T00:21:27.328Z,98660.66
2019-04-30T00:23:53.539Z,98648.52
2019-04-30T00:26:19.719Z,98645.35
2019-04-30T00:28:47.721Z,98647.17
2019-04-30T00:31:17.430Z,98657.64
2019-04-30T00:33:42.053Z,98665.62
2019-04-30T00:36:08.586Z,98662.30
2019-04-30T00:38:37.805Z,98662.53
2019-04-30T00:41:06.825Z,98657.03
2019-04-30T00:43:31.142Z,98655.07
2019-04-30T00:45:57.341Z,98662.56
2019-04-30T00:48:28.087Z,98663.14
2019-04-30T00:50:51.572Z,98666.42
2019-04-30T00:53:17.766Z,98661.61
2019-04-30T00:55:46.796Z,98658.44
2019-04-30T00:58:12.008Z,98654.73
2019-04-30T01:00:45.187Z,98655.61
2019-04-30T01:03:13.374Z,98653.84
2019-04-30T01:05:43.862Z,98648.48
2019-04-30T01:08:08.354Z,98650.98
2019-04-30T01:10:34.871Z,98650.91
2019-04-30T01:13:08.067Z,98651.71
2019-04-30T01:15:29.407Z,98657.16
2019-04-30T01:17:55.560Z,98661.34
2019-04-30T01:20:24.153Z,98660.13
2019-04-30T01:22:51.826Z,98664.79
2019-04-30T01:25:18.715Z,98667.14
2019-04-30T01:27:46.857Z,98670.06
2019-04-30T01:30:17.381Z,98665.58
2019-04-30T01:32:41.121Z,98662.08
2019-04-30T01:35:08.913Z,98674.39
2019-04-30T01:37:35.281Z,98661.61
2019-04-30T01:40:03.160Z,98661.44
2019-04-30T01:42:31.010Z,98653.60
2019-04-30T01:44:58.903Z,98663.23
2019-04-30T01:47:27.655Z,98662.05
2019-04-30T01:49:55.884Z,98651.17
2019-04-30T01:52:21.419Z,98651.58
2019-04-30T01:54:49.018Z,98653.53
2019-04-30T01:57:26.137Z,98644.61
2019-04-30T02:00:03.115Z,98646.83
2019-04-30T02:02:31.201Z,98662.22
2019-04-30T02:04:59.097Z,98653.39
2019-04-30T02:07:25.545Z,98654.72
2019-04-30T02:09:51.836Z,98657.56
2019-04-30T02:12:21.678Z,98660.31
2019-04-30T02:14:46.197Z,98671.20
2019-04-30T02:17:12.390Z,98681.47
2019-04-30T02:19:39.090Z,98687.42
2019-04-30T02:22:05.424Z,98682.78
2019-04-30T02:24:31.634Z,98683.61
2019-04-30T02:26:59.384Z,98673.70
2019-04-30T02:29:25.670Z,98672.61
2019-04-30T02:31:51.869Z,98677.23
2019-04-30T02:34:22.196Z,98683.98
2019-04-30T02:37:04.835Z,98683.21
2019-04-30T02:39:31.017Z,98679.94
2019-04-30T02:41:59.964Z,98678.98
2019-04-30T02:44:26.068Z,98674.42
2019-04-30T02:46:55.853Z,98671.84
2019-04-30T02:49:24.314Z,98675.55
2019-04-30T02:51:53.629Z,98675.62
2019-04-30T02:54:24.021Z,98670.16
2019-04-30T02:56:52.464Z,98678.38
2019-04-30T02:59:20.198Z,98675.08
2019-04-30T03:01:46.741Z,98674.28
2019-04-30T03:04:12.918Z,98685.67
2019-04-30T03:06:40.146Z,98682.22
2019-04-30T03:09:10.005Z,98692.61
2019-04-30T03:11:35.295Z,98693.49
2019-04-30T03:14:01.601Z,98696.24
2019-04-30T03:16:30.307Z,98692.16
2019-04-30T03:19:01.184Z,98695.47
2019-04-30T03:21:44.326Z,98690.94
2019-04-30T03:24:11.080Z,98689.25
2019-04-30T03:26:40.079Z,98692.38
2019-04-30T03:29:05.675Z,98691.47
2019-04-30T03:31:32.516Z,98698.59
2019-04-30T03:34:01.944Z,98703.67
2019-04-30T03:36:27.380Z,98697.11
2019-04-30T03:38:54.647Z,98693.25
2019-04-30T03:41:20.795Z,98698.07
2019-04-30T03:43:46.992Z,98693.11
2019-04-30T03:46:13.183Z,98695.50
2019-04-30T03:48:39.688Z,98690.47
2019-04-30T03:51:06.079Z,98693.73
2019-04-30T03:53:32.954Z,98699.90
2019-04-30T03:56:01.426Z,98706.92
2019-04-30T03:58:29.241Z,98713.33
2019-04-30T04:01:00.165Z,98710.17
2019-04-30T04:03:25.259Z,98703.64
2019-04-30T04:05:53.354Z,98707.70
2019-04-30T04:08:24.064Z,98705.41
2019-04-30T04:11:00.455Z,98705.58
2019-04-30T04:13:25.871Z,98706.75
2019-04-30T04:15:52.156Z,98701.19
2019-04-30T04:18:20.206Z,98699.81
2019-04-30T04:20:46.523Z,98691.97
2019-04-30T04:23:12.695Z,98700.55
2019-04-30T04:25:40.003Z,98709.28
2019-04-30T04:28:06.388Z,98707.31
2019-04-30T04:30:32.671Z,98707.81
2019-04-30T04:32:59.912Z,98705.45
2019-04-30T04:35:26.335Z,98700.27
2019-04-30T04:37:52.517Z,98696.95
2019-04-30T04:40:21.062Z,98700.73
2019-04-30T04:42:49.051Z,98709.53
2019-04-30T04:45:14.863Z,98718.46
2019-04-30T04:47:41.047Z,98707.41
2019-04-30T04:50:10.034Z,98704.22
2019-04-30T04:52:36.248Z,98705.89
2019-04-30T04:55:04.831Z,98696.52
2019-04-30T04:57:30.986Z,98695.19
2019-04-30T05:00:00.454Z,98688.96
2019-04-30T05:02:32.130Z,98693.61
2019-04-30T05:04:55.949Z,98705.63
2019-04-30T05:07:22.126Z,98700.27
2019-04-30T05:09:48.942Z,98696.44
2019-04-30T05:12:15.267Z,98685.50
2019-04-30T05:14:41.457Z,98691.80
2019-04-30T05:17:09.443Z,98701.75
2019-04-30T05:19:35.778Z,98690.27
2019-04-30T05:22:01.930Z,98701.03
2019-04-30T05:24:28.676Z,98703.21
2019-04-30T05:26:54.897Z,98688.01
2019-04-30T05:29:21.072Z,98691.29
2019-04-30T05:31:48.552Z,98685.92
2019-04-30T05:34:15.039Z,98677.79
2019-04-30T05:36:41.293Z,98678.36
2019-04-30T05:39:08.673Z,98686.47
2019-04-30T05:41:34.988Z,98689.56
2019-04-30T05:44:01.151Z,98689.59
2019-04-30T05:46:29.627Z,98687.63
2019-04-30T05:48:55.532Z,98681.73
2019-04-30T05:51:21.703Z,98676.11
2019-04-30T05:53:49.195Z,98686.15
2019-04-30T05:56:15.578Z,98681.95
2019-04-30T05:58:41.769Z,98681.08
2019-04-30T06:01:09.677Z,98674.25
2019-04-30T06:03:36.162Z,98672.95
2019-04-30T06:06:02.316Z,98672.69
2019-04-30T06:08:30.404Z,98674.30
2019-04-30T06:13:49.233Z,98674.73
2019-04-30T06:16:18.819Z,98677.39
2019-04-30T06:18:45.279Z,98675.27
2019-04-30T06:21:11.483Z,98682.89
2019-04-30T06:23:39.319Z,98682.50
2019-04-30T06:26:09.904Z,98672.25
2019-04-30T06:28:34.174Z,98667.98
2019-04-30T06:31:00.457Z,98665.84
2019-04-30T06:33:26.616Z,98678.16
2019-04-30T06:35:52.918Z,98681.98
2019-04-30T06:38:20.654Z,98668.29
2019-04-30T06:40:48.876Z,98656.50
2019-04-30T06:43:15.662Z,98675.95
2019-04-30T06:45:42.825Z,98670.11
2019-04-30T06:48:10.897Z,98681.11
2019-04-30T06:50:39.169Z,98676.31
2019-04-30T06:53:05.315Z,98667.83
2019-04-30T06:55:31.500Z,98669.59
2019-04-30T06:58:11.438Z,98668.64
2019-04-30T07:00:35.614Z,98665.53
2019-04-30T07:03:01.949Z,98671.06
2019-04-30T07:05:28.639Z,98665.38
2019-04-30T07:08:13.202Z,98665.03
2019-04-30T07:10:41.413Z,98660.16
2019-04-30T07:13:21.736Z,98665.61
2019-04-30T07:15:48.986Z,98662.38
2019-04-30T07:18:15.489Z,98654.55
2019-04-30T07:20:41.792Z,98647.20
2019-04-30T07:23:09.331Z,98650.30
2019-04-30T07:25:35.642Z,98654.67
2019-04-30T07:28:01.854Z,98653.68
2019-04-30T07:30:30.643Z,98645.20
2019-04-30T07:32:56.085Z,98646.63
2019-04-30T07:35:22.294Z,98644.11
2019-04-30T07:37:49.765Z,98641.48
2019-04-30T07:40:16.679Z,98638.95
2019-04-30T07:42:45.086Z,98642.49
2019-04-30T07:45:11.050Z,98640.93
2019-04-30T07:47:39.234Z,98642.07
2019-04-30T07:50:06.281Z,98643.27
2019-04-30T07:52:35.347Z,98644.37
2019-04-30T07:55:04.435Z,98630.14
2019-04-30T07:57:32.321Z,98626.41
2019-04-30T08:00:00.493Z,98631.16
2019-04-30T08:02:29.753Z,98624.95
2019-04-30T08:04:59.882Z,98634.09
2019-04-30T08:07:26.383Z,98632.08
2019-04-30T08:09:52.642Z,98629.80
2019-04-30T08:12:26.347Z,98635.95
2019-04-30T08:14:49.429Z,98634.36
2019-04-30T08:17:14.995Z,98631.63
2019-04-30T08:19:41.254Z,98625.95
2019-04-30T08:22:09.510Z,98628.63
2019-04-30T08:24:35.547Z,98626.17
2019-04-30T08:27:01.736Z,98617.55
2019-04-30T08:29:29.483Z,98619.50
2019-04-30T08:31:55.778Z,98619.13
2019-04-30T08:34:22.141Z,98611.86
2019-04-30T08:36:48.943Z,98613.36
2019-04-30T08:39:15.279Z,98623.27
2019-04-30T08:41:42.400Z,98613.19
2019-04-30T08:44:09.407Z,98611.94
2019-04-30T08:46:35.952Z,98600.63
2019-04-30T08:49:02.244Z,98616.70
2019-04-30T08:51:30.908Z,98604.28
2019-04-30T08:53:58.540Z,98599.91
2019-04-30T08:56:25.579Z,98602.79
2019-04-30T08:58:51.751Z,98598.37
2019-04-30T09:01:19.558Z,98602.03
2019-04-30T09:03:46.130Z,98599.66
2019-04-30T09:06:14.196Z,98590.30
2019-04-30T09:08:40.376Z,98586.30
2019-04-30T09:11:20.155Z,98588.48
2019-04-30T09:13:34.655Z,98582.94
2019-04-30T09:16:00.910Z,98576.78
2019-04-30T09:18:29.028Z,98567.97
2019-04-30T09:21:03.447Z,98574.55
2019-04-30T09:23:23.383Z,98561.91
2019-04-30T09:25:49.842Z,98569.62
2019-04-30T09:28:16.273Z,98553.48
2019-04-30T09:30:42.438Z,98545.80
2019-04-30T09:33:10.921Z,98539.52
2019-04-30T09:35:36.727Z,98545.42
2019-04-30T09:38:02.904Z,98538.05
2019-04-30T09:40:32.312Z,98525.97
2019-04-30T09:42:58.537Z,98513.92
2019-04-30T09:45:25.235Z,98516.25
2019-04-30T09:47:51.547Z,98513.08
2019-04-30T09:50:18.831Z,98520.45
2019-04-30T09:52:45.415Z,98510.07
2019-04-30T09:55:11.966Z,98505.91
2019-04-30T09:57:39.029Z,98504.11
2019-04-30T10:00:07.165Z,98498.33
2019-04-30T10:02:33.370Z,98493.05
2019-04-30T10:05:00.026Z,98490.17
2019-04-30T10:07:26.584Z,98482.88
2019-04-30T10:09:52.905Z,98481.72
2019-04-30T10:12:19.655Z,98474.59
2019-04-30T10:14:46.220Z,98482.64
2019-04-30T10:17:26.381Z,98476.41
2019-04-30T10:19:52.559Z,98467.33
2019-04-30T10:22:18.824Z,98465.72
2019-04-30T10:24:45.043Z,98465.38
2019-04-30T10:27:13.464Z,98457.94
2019-04-30T10:29:41.223Z,98442.62
2019-04-30T10:32:08.816Z,98452.73
2019-04-30T10:34:35.279Z,98436.45
2019-04-30T10:37:02.932Z,98419.96
2019-04-30T10:39:30.573Z,98428.73
2019-04-30T10:41:56.712Z,98434.39
2019-04-30T10:44:22.868Z,98428.17
2019-04-30T10:46:49.071Z,98420.57
2019-04-30T10:49:15.272Z,98410.83
2019-04-30T10:51:41.431Z,98394.66
2019-04-30T10:54:08.794Z,98389.22
2019-04-30T10:56:35.272Z,98401.45
2019-04-30T10:59:01.604Z,98389.66
2019-04-30T11:01:29.179Z,98382.80
2019-04-30T11:03:55.675Z,98384.50
2019-04-30T11:06:21.853Z,98370.55
2019-04-30T11:08:48.042Z,98364.90
2019-04-30T11:11:14.217Z,98365.40
2019-04-30T11:13:40.381Z,98374.61
2019-04-30T11:16:14.733Z,98374.01
2019-04-30T11:18:34.727Z,98358.17
2019-04-30T11:21:01.336Z,98347.36
2019-04-30T11:23:29.636Z,98347.76
2019-04-30T11:25:56.610Z,98337.30
2019-04-30T11:28:23.804Z,98335.81
2019-04-30T11:30:52.742Z,98329.30
2019-04-30T11:33:19.302Z,98332.70
2019-04-30T11:35:45.901Z,98332.09
2019-04-30T11:38:12.100Z,98330.36
2019-04-30T11:40:39.904Z,98339.68
2019-04-30T11:43:06.445Z,98329.30
2019-04-30T11:45:54.419Z,98318.43
2019-04-30T11:48:20.590Z,98320.48
2019-04-30T11:50:46.874Z,98322.03
2019-04-30T11:53:24.584Z,98323.98
2019-04-30T11:55:41.254Z,98324.63
2019-04-30T11:58:07.428Z,98320.62
2019-04-30T12:00:35.828Z,98318.66
2019-04-30T12:03:02.009Z,98331.17
2019-04-30T12:05:28.970Z,98463.17
2019-04-30T12:07:59.845Z,98482.81
2019-04-30T12:10:30.661Z,98486.12
2019-04-30T12:12:58.675Z,98481.84
2019-04-30T12:15:29.151Z,98493.97
2019-04-30T12:17:55.604Z,98493.86
2019-04-30T12:20:21.781Z,98490.16
2019-04-30T12:22:49.317Z,98512.77
2019-04-30T12:25:15.937Z,98529.56
2019-04-30T12:27:42.123Z,98530.58
2019-04-30T12:30:09.214Z,98534.77
2019-04-30T12:32:35.503Z,98532.34
2019-04-30T12:35:02.384Z,98525.16
2019-04-30T12:37:29.065Z,98538.95
2019-04-30T12:39:55.439Z,98568.39
2019-04-30T12:42:21.932Z,98565.34
2019-04-30T12:44:49.554Z,98556.73
2019-04-30T12:47:15.904Z,98545.20
2019-04-30T12:50:02.133Z,98564.67
2019-04-30T12:52:32.856Z,98588.61
2019-04-30T12:55:00.917Z,98574.41
2019-04-30T12:57:29.589Z,98558.36
2019-04-30T12:59:55.904Z,98576.81
2019-04-30T13:02:22.219Z,98608.02
2019-04-30T13:04:49.315Z,98637.51
2019-04-30T13:07:16.199Z,98650.21
2019-04-30T13:09:43.095Z,98615.10
2019-04-30T13:12:10.851Z,98609.33
2019-04-30T13:14:51.089Z,98604.66
2019-04-30T13:17:07.356Z,98593.23
2019-04-30T13:19:33.802Z,98599.59
2019-04-30T13:21:59.959Z,98618.69
2019-04-30T13:24:26.352Z,98615.23
2019-04-30T13:26:52.627Z,98620.84
2019-04-30T13:29:23.526Z,98625.06
2019-04-30T13:31:50.303Z,98630.06
2019-04-30T13:34:24.374Z,98628.64
2019-04-30T13:36:50.564Z,98638.95
2019-04-30T13:39:21.364Z,98631.89
2019-04-30T13:41:55.022Z,98630.09
2019-04-30T13:44:24.128Z,98627.95
2019-04-30T13:46:50.378Z,98632.20
2019-04-30T13:49:16.581Z,98633.27
2019-04-30T13:51:43.020Z,98624.41
2019-04-30T13:54:09.499Z,98618.52
2019-04-30T13:56:35.705Z,98639.91
2019-04-30T13:59:01.972Z,98626.40
2019-04-30T14:01:29.404Z,98637.80
2019-04-30T14:04:00.565Z,98641.47
2019-04-30T14:06:29.020Z,98645.93
2019-04-30T14:08:57.328Z,98629.44
2019-04-30T14:11:23.541Z,98634.50
2019-04-30T14:13:49.820Z,98647.58
2019-04-30T14:16:16.077Z,98665.89
2019-04-30T14:18:42.291Z,98665.72
2019-04-30T14:21:09.338Z,98664.38
2019-04-30T14:23:35.804Z,98662.44
2019-04-30T14:26:02.124Z,98652.73
2019-04-30T14:28:29.195Z,98642.13
2019-04-30T14:30:55.455Z,98637.27
2019-04-30T14:33:25.936Z,98625.36
2019-04-30T14:35:49.856Z,98639.74
2019-04-30T14:38:15.983Z,98638.66
2019-04-30T14:40:42.634Z,98644.65
2019-04-30T14:43:11.785Z,98638.63
2019-04-30T14:46:01.147Z,98637.88
2019-04-30T14:48:42.913Z,98634.44
2019-04-30T14:51:09.618Z,98629.50
2019-04-30T14:53:46.360Z,98618.22
2019-04-30T14:56:17.022Z,98623.00
2019-04-30T14:58:47.885Z,98609.44
2019-04-30T15:01:21.778Z,98609.44
2019-04-30T15:03:49.487Z,98604.63
2019-04-30T15:06:15.812Z,98598.69
2019-04-30T15:08:42.008Z,98600.72
2019-04-30T15:11:09.047Z,98614.96
2019-04-30T15:13:35.573Z,98621.20
2019-04-30T15:16:02.093Z,98627.27
2019-04-30T15:18:29.042Z,98627.70
2019-04-30T15:20:55.445Z,98632.52
2019-04-30T15:23:23.533Z,98623.48
2019-04-30T15:25:50.059Z,98612.28
2019-04-30T15:28:16.218Z,98609.61
2019-04-30T15:30:42.415Z,98615.89
2019-04-30T15:33:25.478Z,98624.84
2019-04-30T15:35:51.879Z,98615.79
2019-04-30T15:38:19.346Z,98608.09
2019-04-30T15:40:45.788Z,98615.41
2019-04-30T15:43:12.315Z,98625.53
2019-04-30T15:45:39.145Z,98617.11
2019-04-30T15:48:05.430Z,98619.63
2019-04-30T15:50:31.641Z,98618.35
2019-04-30T15:52:58.516Z,98620.48
2019-04-30T15:55:24.979Z,98623.98
2019-04-30T15:58:10.123Z,98633.10
2019-04-30T16:00:36.482Z,98644.58
2019-04-30T16:03:04.559Z,98647.44
2019-04-30T16:05:35.226Z,98641.48
2019-04-30T16:08:10.124Z,98644.35
2019-04-30T16:10:49.983Z,98646.52
2019-04-30T16:13:19.520Z,98646.05
2019-04-30T16:15:45.843Z,98637.25
2019-04-30T16:18:12.146Z,98634.50
2019-04-30T16:20:39.330Z,98640.87
2019-04-30T16:23:05.827Z,98659.62
2019-04-30T16:25:32.013Z,98661.17
2019-04-30T16:27:58.197Z,98662.30
2019-04-30T16:30:24.448Z,98670.45
2019-04-30T16:32:50.831Z,98670.91
2019-04-30T16:35:17.137Z,98667.13
2019-04-30T16:37:43.288Z,98674.03
2019-04-30T16:40:10.415Z,98677.41
2019-04-30T16:42:38.843Z,98691.87
2019-04-30T16:45:05.941Z,98701.15
2019-04-30T16:47:32.133Z,98693.80
2019-04-30T16:49:58.889Z,98715.50
2019-04-30T16:52:25.337Z,98714.89
2019-04-30T16:54:51.507Z,98716.45
2019-04-30T16:57:17.682Z,98716.25
2019-04-30T16:59:43.843Z,98719.75
2019-04-30T17:02:10.157Z,98714.55
2019-04-30T17:07:35.281Z,98699.36
2019-04-30T17:10:18.918Z,98699.11
2019-04-30T17:12:51.507Z,98721.75
2019-04-30T17:15:24.135Z,98721.32
2019-04-30T17:17:50.396Z,98700.76
2019-04-30T17:20:18.527Z,98684.72
2019-04-30T17:22:44.690Z,98675.48
2019-04-30T17:25:10.851Z,98698.34
2019-04-30T17:27:39.139Z,98720.86
2019-04-30T17:30:09.094Z,98751.94
2019-04-30T17:32:36.866Z,98770.23
2019-04-30T17:35:04.659Z,98768.70
2019-04-30T17:37:31.577Z,98767.72
2019-04-30T17:39:59.048Z,98753.02
2019-04-30T17:42:25.493Z,98726.88
2019-04-30T17:44:58.389Z,98680.67
2019-04-30T17:47:19.860Z,98672.36
2019-04-30T17:49:46.066Z,98712.42
2019-04-30T17:52:12.234Z,98730.06
2019-04-30T17:54:38.385Z,98713.22
2019-04-30T17:57:04.601Z,98718.85
2019-04-30T17:59:30.744Z,98715.97
2019-04-30T18:01:59.638Z,98714.13
2019-04-30T18:04:26.427Z,98703.67
2019-04-30T18:06:52.607Z,98702.88
2019-04-30T18:09:20.608Z,98687.56
2019-04-30T18:11:46.792Z,98676.38
2019-04-30T18:14:12.960Z,98667.25
2019-04-30T18:16:39.122Z,98672.75
2019-04-30T18:19:12.781Z,98660.91
2019-04-30T18:21:40.861Z,98657.19
2019-04-30T18:24:14.738Z,98675.87
2019-04-30T18:26:48.369Z,98693.17
2019-04-30T18:29:14.650Z,98713.04
2019-04-30T18:31:40.981Z,98722.70
2019-04-30T18:34:09.400Z,98723.38
2019-04-30T18:36:35.209Z,98724.48
2019-04-30T18:39:01.400Z,98735.37
2019-04-30T18:41:27.656Z,98741.00
2019-04-30T18:43:54.268Z,98742.41
2019-04-30T18:46:20.481Z,98752.41
2019-04-30T18:48:46.634Z,98754.27
2019-04-30T18:51:30.119Z,98754.89
2019-04-30T18:53:40.918Z,98759.23
2019-04-30T18:56:10.517Z,98765.90
2019-04-30T18:58:39.836Z,98767.46
2019-04-30T19:01:03.675Z,98765.41
2019-04-30T19:03:29.827Z,98761.60
2019-04-30T19:05:58.674Z,98769.28
2019-04-30T19:08:26.913Z,98767.07
2019-04-30T19:11:00.643Z,98770.45
2019-04-30T19:13:29.883Z,98767.27
2019-04-30T19:16:18.535Z,98771.19
2019-04-30T19:18:31.158Z,98758.41
2019-04-30T19:21:00.116Z,98746.26
2019-04-30T19:23:26.509Z,98747.11
2019-04-30T19:25:52.696Z,98740.08
2019-04-30T19:28:18.971Z,98733.16
2019-04-30T19:30:55.081Z,98743.20
2019-04-30T19:33:13.350Z,98742.41
2019-04-30T19:35:39.532Z,98747.95
2019-04-30T19:38:05.782Z,98749.56
2019-04-30T19:40:31.969Z,98743.83
2019-04-30T19:42:58.147Z,98757.20
2019-04-30T19:45:24.428Z,98760.30
2019-04-30T19:47:50.622Z,98757.27
2019-04-30T19:50:16.788Z,98760.52
2019-04-30T19:52:42.964Z,98770.70
2019-04-30T19:55:09.152Z,98772.14
2019-04-30T19:57:35.340Z,98766.60
2019-04-30T20:00:01.512Z,98760.20
2019-04-30T20:02:29.460Z,98763.78
2019-04-30T20:04:55.904Z,98769.76
2019-04-30T20:07:24.332Z,98780.42
2019-04-30T20:10:00.169Z,98780.11
2019-04-30T20:12:21.856Z,98778.41
2019-04-30T20:14:49.614Z,98783.91
2019-04-30T20:17:16.132Z,98784.38
2019-04-30T20:19:42.301Z,98790.39
2019-04-30T20:22:10.296Z,98791.72
2019-04-30T20:24:36.505Z,98790.22
2019-04-30T20:27:07.146Z,98785.23
2019-04-30T20:29:30.881Z,98790.12
2019-04-30T20:31:58.988Z,98784.69
2019-04-30T20:34:25.150Z,98793.47
2019-04-30T20:36:51.304Z,98791.94
2019-04-30T20:39:19.400Z,98798.36
2019-04-30T20:41:45.601Z,98793.81
2019-04-30T20:44:11.982Z,98796.94
2019-04-30T20:46:39.299Z,98797.59
2019-04-30T20:49:05.643Z,98803.84
2019-04-30T20:51:31.815Z,98805.89
2019-04-30T20:53:59.211Z,98799.32
2019-04-30T20:56:29.128Z,98807.88
2019-04-30T20:58:59.843Z,98809.95
2019-04-30T21:01:23.864Z,98816.80
2019-04-30T21:03:50.015Z,98828.50
2019-04-30T21:06:16.210Z,98829.31
2019-04-30T21:08:42.423Z,98834.87
2019-04-30T21:11:09.375Z,98825.94
2019-04-30T21:13:35.812Z,98824.45
2019-04-30T21:16:01.995Z,98824.38
2019-04-30T21:18:30.499Z,98823.91
2019-04-30T21:20:56.233Z,98818.80
2019-04-30T21:23:22.453Z,98828.97
2019-04-30T21:25:48.901Z,98834.80
2019-04-30T21:28:15.361Z,98832.52
2019-04-30T21:30:41.581Z,98834.67
2019-04-30T21:33:21.362Z,98836.66
2019-04-30T21:35:50.776Z,98836.86
2019-04-30T21:38:19.275Z,98847.91
2019-04-30T21:40:45.216Z,98847.70
2019-04-30T21:43:11.435Z,98849.63
2019-04-30T21:45:39.857Z,98858.34
2019-04-30T21:48:06.016Z,98856.72
2019-04-30T21:50:32.223Z,98854.31
2019-04-30T21:52:59.758Z,98852.41
2019-04-30T21:55:26.173Z,98851.86
2019-04-30T21:57:52.383Z,98851.04
2019-04-30T22:00:36.213Z,98849.33
2019-04-30T22:03:03.811Z,98851.20
2019-04-30T22:05:29.986Z,98843.41
2019-04-30T22:07:56.164Z,98844.59
2019-04-30T22:10:22.345Z,98840.92
2019-04-30T22:12:48.909Z,98853.95
2019-04-30T22:15:15.182Z,98855.11
2019-04-30T22:17:41.372Z,98861.35
2019-04-30T22:20:09.605Z,98846.81
2019-04-30T22:22:35.875Z,98853.87
2019-04-30T22:25:02.288Z,98854.52
2019-04-30T22:27:28.452Z,98851.50
2019-04-30T22:29:54.745Z,98854.34
2019-04-30T22:32:21.036Z,98846.33
2019-04-30T22:34:47.624Z,98847.70
2019-04-30T22:37:13.794Z,98846.41
2019-04-30T22:39:41.889Z,98846.45
2019-04-30T22:42:20.572Z,98842.14
2019-04-30T22:44:47.194Z,98842.76
2019-04-30T22:47:13.378Z,98836.52
2019-04-30T22:49:39.536Z,98839.91
2019-04-30T22:52:05.778Z,98841.70
2019-04-30T22:54:32.046Z,98839.66
2019-04-30T22:56:58.303Z,98833.20
2019-04-30T22:59:24.508Z,98829.89
2019-04-30T23:01:55.241Z,98830.23
2019-04-30T23:04:23.321Z,98825.42
2019-04-30T23:06:49.530Z,98820.06
2019-04-30T23:09:15.784Z,98808.20
2019-04-30T23:11:41.964Z,98801.25
2019-04-30T23:14:08.156Z,98801.70
2019-04-30T23:16:34.367Z,98803.05
2019-04-30T23:19:00.548Z,98805.33
2019-04-30T23:21:26.756Z,98810.45
2019-04-30T23:23:52.918Z,98805.84
2019-04-30T23:26:19.175Z,98812.11
2019-04-30T23:28:45.386Z,98807.66
2019-04-30T23:31:11.543Z,98802.66
2019-04-30T23:33:37.725Z,98809.30
2019-04-30T23:36:03.932Z,98806.78
2019-04-30T23:38:30.093Z,98800.66
2019-04-30T23:40:56.248Z,98799.95
2019-04-30T23:43:22.466Z,98797.01
2019-04-30T23:45:48.642Z,98792.40
2019-04-30T23:48:14.796Z,98791.70
2019-04-30T23:50:41.015Z,98794.66
2019-04-30T23:53:07.170Z,98794.08
2019-04-30T23:55:33.329Z,98790.58
2019-04-30T23:57:59.534Z,98789.70
